Time;durP1;ratioP1;P1;durP2;ratioP2;P2;SDS_P1;SDS_P2;PMS_P1;PMS_P2;Temp;Humidity;BMP_temperature;BMP_pressure;BME280_temperature;BME280_humidity;BME280_pressure;Samples;Min_cycle;Max_cycle;Signal;HPM_P1;HPM_P2
2022/05/26 00:01:25;;;;;;;0.88;0.82;;;18.20;99.30;;;;;;5048661;28;20318;-34
2022/05/26 00:03:55;;;;;;;1.60;0.90;;;18.20;99.40;;;;;;5047619;28;20236;-34
2022/05/26 00:06:25;;;;;;;2.83;1.10;;;18.20;99.50;;;;;;5048404;28;20569;-34
2022/05/26 00:08:52;;;;;;;2.20;1.00;;;18.20;99.60;;;;;;5042809;28;20690;-34
2022/05/26 00:11:26;;;;;;;2.15;1.17;;;18.20;99.60;;;;;;5067130;28;20224;-33
2022/05/26 00:13:55;;;;;;;2.40;1.38;;;18.20;99.70;;;;;;5030785;28;20235;-34
2022/05/26 00:16:23;;;;;;;2.47;0.95;;;18.20;99.60;;;;;;5028430;28;20275;-34
2022/05/26 00:18:55;;;;;;;3.35;1.13;;;18.20;99.70;;;;;;5027840;28;20279;-34
2022/05/26 00:21:28;;;;;;;2.63;1.30;;;18.20;99.60;;;;;;5028815;28;20243;-34
2022/05/26 00:23:56;;;;;;;3.50;1.58;;;18.20;99.60;;;;;;5028064;28;20308;-34
2022/05/26 00:26:24;;;;;;;3.38;1.30;;;18.20;99.70;;;;;;5028612;28;20755;-34
2022/05/26 00:28:51;;;;;;;3.80;1.20;;;18.20;99.50;;;;;;5027175;28;20247;-34
2022/05/26 00:31:21;;;;;;;2.88;1.05;;;18.20;99.60;;;;;;5048083;28;20315;-33
2022/05/26 00:33:49;;;;;;;2.65;1.30;;;18.20;99.70;;;;;;5047394;28;20211;-35
2022/05/26 00:36:17;;;;;;;2.65;1.30;;;18.10;99.60;;;;;;5047955;28;20208;-34
2022/05/26 00:38:45;;;;;;;2.33;1.50;;;18.10;99.60;;;;;;5058077;28;20291;-34
2022/05/26 00:41:14;;;;;;;4.25;1.42;;;18.10;99.60;;;;;;5068014;28;20199;-35
2022/05/26 00:43:43;;;;;;;3.95;1.40;;;18.10;99.60;;;;;;5039094;28;20790;-34
2022/05/26 00:46:23;;;;;;;4.45;1.92;;;18.10;99.70;;;;;;5033750;28;20205;-35
2022/05/26 00:48:58;;;;;;;3.03;1.70;;;18.10;99.70;;;;;;5042313;28;20196;-34
2022/05/26 00:51:33;;;;;;;5.05;1.60;;;18.10;99.80;;;;;;5047316;28;20288;-34
2022/05/26 00:54:07;;;;;;;4.97;1.88;;;18.10;99.70;;;;;;5047626;28;20204;-34
2022/05/26 00:56:43;;;;;;;7.80;2.22;;;18.10;99.60;;;;;;5047555;28;20223;-34
2022/05/26 00:59:21;;;;;;;6.60;2.03;;;18.10;99.80;;;;;;5034409;28;20201;-34
2022/05/26 01:01:49;;;;;;;10.27;2.67;;;18.00;99.80;;;;;;5035645;28;20215;-34
2022/05/26 01:04:20;;;;;;;3.50;1.98;;;18.00;99.90;;;;;;5046704;28;20595;-34
2022/05/26 01:06:58;;;;;;;4.47;2.13;;;18.00;99.80;;;;;;5047363;28;20713;-34
2022/05/26 01:09:25;;;;;;;5.35;2.13;;;18.00;99.70;;;;;;5035771;28;20196;-34
2022/05/26 01:11:52;;;;;;;7.07;2.80;;;17.90;99.80;;;;;;5047161;28;20220;-34
2022/05/26 01:14:27;;;;;;;6.05;2.58;;;17.90;99.80;;;;;;5047094;28;20323;-34
2022/05/26 01:17:03;;;;;;;5.47;2.40;;;17.90;99.90;;;;;;5046006;28;20204;-34
2022/05/26 01:19:54;;;;;;;7.13;2.65;;;17.90;99.80;;;;;;5047448;28;20596;-34
2022/05/26 01:22:42;;;;;;;5.95;2.30;;;17.90;99.90;;;;;;5047143;28;20204;-34
2022/05/26 01:25:47;;;;;;;6.57;2.65;;;17.90;99.80;;;;;;5040445;28;20208;-34
2022/05/26 01:28:35;;;;;;;7.13;2.30;;;17.90;99.90;;;;;;5045873;28;20204;-34
2022/05/26 01:31:05;;;;;;;7.63;2.88;;;17.80;99.90;;;;;;5047033;28;20247;-34
2022/05/26 01:33:39;;;;;;;8.07;3.00;;;17.80;99.90;;;;;;5043510;28;20216;-34
2022/05/26 01:36:28;;;;;;;9.73;2.90;;;17.80;99.90;;;;;;5027633;28;20266;-34
2022/05/26 01:39:24;;;;;;;7.13;2.65;;;17.80;99.90;;;;;;5057530;28;20302;-34
2022/05/26 01:42:01;;;;;;;8.18;2.88;;;17.80;99.90;;;;;;5067091;28;20204;-34
2022/05/26 01:44:35;;;;;;;7.75;2.90;;;17.70;99.90;;;;;;5066942;28;20199;-34
2022/05/26 01:47:18;;;;;;;5.70;2.85;;;17.70;99.90;;;;;;5066839;28;21003;-34
2022/05/26 01:49:56;;;;;;;7.03;2.72;;;17.70;99.90;;;;;;5057440;28;20783;-34
2022/05/26 01:52:35;;;;;;;8.23;2.80;;;17.70;99.90;;;;;;5046212;28;20322;-34
2022/05/26 01:55:09;;;;;;;9.32;3.25;;;17.70;99.90;;;;;;5035720;28;20702;-34
2022/05/26 01:58:03;;;;;;;8.93;2.75;;;17.70;99.90;;;;;;5039481;28;20634;-34
2022/05/26 02:00:31;;;;;;;7.45;2.80;;;17.70;99.90;;;;;;5046650;28;20201;-34
2022/05/26 02:03:12;;;;;;;8.20;3.00;;;17.70;99.90;;;;;;5049340;28;20214;-33
2022/05/26 02:05:47;;;;;;;7.60;2.60;;;17.70;99.90;;;;;;5051017;28;20200;-34
2022/05/26 02:08:29;;;;;;;8.32;2.88;;;17.70;99.90;;;;;;5042568;28;20192;-33
2022/05/26 02:11:07;;;;;;;8.57;2.92;;;17.70;99.90;;;;;;5045497;28;20675;-34
2022/05/26 02:13:58;;;;;;;7.88;2.75;;;17.70;99.90;;;;;;5029995;28;20197;-34
2022/05/26 02:17:07;;;;;;;7.20;2.60;;;17.70;99.90;;;;;;5030690;28;20197;-34
2022/05/26 02:19:40;;;;;;;7.63;2.78;;;17.70;99.90;;;;;;5030366;28;20695;-34
2022/05/26 02:22:25;;;;;;;9.32;3.35;;;17.70;99.90;;;;;;5030352;28;20237;-34
2022/05/26 02:25:04;;;;;;;8.70;3.20;;;17.70;99.90;;;;;;5030739;28;20197;-34
2022/05/26 02:27:32;;;;;;;9.10;2.88;;;17.70;99.90;;;;;;5030419;28;20204;-34
2022/05/26 02:30:00;;;;;;;12.13;3.63;;;17.70;99.90;;;;;;5048796;28;20215;-34
2022/05/26 02:32:38;;;;;;;10.35;3.47;;;17.70;99.90;;;;;;5049945;28;20231;-34
2022/05/26 02:35:27;;;;;;;9.77;3.75;;;17.70;99.90;;;;;;5050781;28;20613;-34
2022/05/26 02:37:58;;;;;;;8.30;3.47;;;17.70;99.90;;;;;;5053729;28;20265;-34
2022/05/26 02:40:25;;;;;;;10.48;3.70;;;17.70;99.90;;;;;;5053482;28;20200;-34
2022/05/26 02:43:05;;;;;;;10.48;3.42;;;17.80;99.90;;;;;;5034962;28;20216;-34
2022/05/26 02:45:46;;;;;;;8.85;3.22;;;17.80;99.90;;;;;;5036441;28;20208;-34
2022/05/26 02:48:14;;;;;;;10.55;3.53;;;17.70;99.90;;;;;;5049544;28;20666;-34
2022/05/26 02:51:17;;;;;;;10.80;3.88;;;17.80;99.90;;;;;;5066948;28;20290;-34
2022/05/26 02:54:03;;;;;;;13.60;4.20;;;17.80;99.90;;;;;;5069752;28;20203;-34
2022/05/26 02:56:47;;;;;;;14.52;3.60;;;17.80;99.90;;;;;;5069840;28;20286;-34
2022/05/26 02:59:24;;;;;;;12.18;3.70;;;17.70;99.90;;;;;;5049987;28;20680;-34
2022/05/26 03:01:59;;;;;;;11.25;3.50;;;17.80;99.90;;;;;;5030874;28;20633;-34
2022/05/26 03:04:35;;;;;;;9.95;3.28;;;17.70;99.90;;;;;;5049199;28;20927;-34
2022/05/26 03:07:07;;;;;;;9.70;3.22;;;17.80;99.90;;;;;;5048674;28;20303;-34
2022/05/26 03:09:37;;;;;;;9.50;3.10;;;17.70;99.90;;;;;;5049728;28;20224;-34
2022/05/26 03:12:05;;;;;;;10.95;3.90;;;17.70;99.90;;;;;;5049063;28;20323;-34
2022/05/26 03:14:32;;;;;;;11.73;3.80;;;17.70;99.90;;;;;;5048808;28;20556;-34
2022/05/26 03:17:00;;;;;;;13.85;4.10;;;17.70;99.90;;;;;;5063386;28;20714;-34
2022/05/26 03:19:27;;;;;;;10.23;3.50;;;17.70;99.90;;;;;;5042913;28;20283;-34
2022/05/26 03:21:54;;;;;;;10.65;3.67;;;17.70;99.90;;;;;;5029610;28;20221;-34
2022/05/26 03:24:23;;;;;;;11.77;4.07;;;17.70;99.90;;;;;;5029366;28;20215;-33
2022/05/26 03:26:52;;;;;;;10.38;3.45;;;17.70;99.90;;;;;;5035827;28;20212;-34
2022/05/26 03:29:20;;;;;;;13.73;3.92;;;17.70;99.90;;;;;;5048743;28;20200;-34
2022/05/26 03:31:47;;;;;;;11.30;3.85;;;17.70;99.90;;;;;;5048866;28;20561;-34
2022/05/26 03:42:31;;;;;;;11.75;4.00;;;17.60;99.90;;;;;;5028768;28;20683;-34
2022/05/26 03:44:59;;;;;;;10.50;4.00;;;17.60;99.90;;;;;;5028607;28;20292;-34
2022/05/26 03:47:26;;;;;;;11.45;3.92;;;17.70;99.90;;;;;;5028840;28;20251;-34
2022/05/26 03:49:53;;;;;;;14.00;3.88;;;17.70;99.90;;;;;;5036980;28;20209;-34
2022/05/26 03:52:25;;;;;;;11.68;4.30;;;17.60;99.90;;;;;;5028749;28;20249;-34
2022/05/26 03:54:52;;;;;;;7.93;3.63;;;17.60;99.90;;;;;;5046692;28;20208;-34
2022/05/26 03:57:24;;;;;;;11.30;3.88;;;17.60;99.90;;;;;;5048730;28;20287;-34
2022/05/26 03:59:54;;;;;;;15.57;3.92;;;17.60;99.90;;;;;;5046709;28;20195;-34
2022/05/26 04:02:22;;;;;;;10.70;4.18;;;17.60;99.90;;;;;;5048142;28;20242;-34
2022/05/26 04:04:49;;;;;;;12.55;4.07;;;17.60;99.90;;;;;;5048106;28;20250;-34
2022/05/26 04:07:17;;;;;;;11.27;4.07;;;17.60;99.90;;;;;;5038140;28;20307;-33
2022/05/26 04:09:44;;;;;;;13.13;4.20;;;17.60;99.90;;;;;;5031232;28;20200;-34
2022/05/26 04:12:12;;;;;;;10.80;3.90;;;17.60;99.90;;;;;;5047791;28;20278;-34
2022/05/26 04:14:39;;;;;;;15.40;3.58;;;17.60;99.90;;;;;;5047757;28;20256;-34
2022/05/26 04:17:06;;;;;;;13.93;4.47;;;17.60;99.90;;;;;;5047724;28;20218;-34
2022/05/26 04:19:35;;;;;;;10.70;3.75;;;17.60;99.90;;;;;;5047864;28;20200;-34
2022/05/26 04:22:18;;;;;;;11.57;3.97;;;17.60;99.90;;;;;;5048363;28;20208;-34
2022/05/26 04:24:50;;;;;;;13.40;4.35;;;17.60;99.90;;;;;;5046933;28;20726;-33
2022/05/26 04:27:21;;;;;;;13.98;3.90;;;17.60;99.90;;;;;;5037481;28;20660;-34
2022/05/26 04:29:48;;;;;;;13.98;4.03;;;17.60;99.90;;;;;;5027457;28;20204;-34
2022/05/26 04:32:17;;;;;;;17.00;4.30;;;17.60;99.90;;;;;;5027721;28;20256;-34
2022/05/26 04:34:48;;;;;;;9.38;3.55;;;17.60;99.90;;;;;;5028071;28;20284;-34
2022/05/26 04:37:16;;;;;;;11.05;4.22;;;17.60;99.90;;;;;;5027875;28;20442;-34
2022/05/26 04:39:44;;;;;;;11.52;3.95;;;17.60;99.90;;;;;;5043561;28;20208;-34
2022/05/26 04:42:12;;;;;;;13.13;4.28;;;17.60;99.90;;;;;;5028908;28;20240;-34
2022/05/26 04:44:44;;;;;;;14.82;4.57;;;17.60;99.90;;;;;;5034960;28;20270;-34
2022/05/26 04:47:17;;;;;;;14.60;4.60;;;17.60;99.90;;;;;;5047472;28;20742;-34
2022/05/26 04:49:48;;;;;;;12.73;4.32;;;17.60;99.90;;;;;;5048075;28;20211;-34
2022/05/26 04:52:21;;;;;;;11.15;4.35;;;17.60;99.90;;;;;;5047678;28;20863;-34
2022/05/26 04:54:49;;;;;;;11.13;3.83;;;17.60;99.90;;;;;;5047498;28;20204;-34
2022/05/26 04:57:19;;;;;;;12.70;4.23;;;17.60;99.90;;;;;;5047039;28;20702;-34
2022/05/26 04:59:49;;;;;;;11.60;4.53;;;17.70;99.90;;;;;;5047249;28;20223;-34
2022/05/26 05:02:19;;;;;;;15.68;4.00;;;17.70;99.90;;;;;;5033942;28;20640;-34
2022/05/26 05:04:49;;;;;;;12.77;4.00;;;17.70;99.90;;;;;;5027264;28;20243;-34
2022/05/26 05:07:19;;;;;;;11.73;4.13;;;17.70;99.90;;;;;;5028176;28;20213;-34
2022/05/26 05:09:47;;;;;;;11.02;4.00;;;17.70;99.90;;;;;;5036070;28;20235;-34
2022/05/26 05:12:18;;;;;;;16.00;4.43;;;17.70;99.90;;;;;;5047482;28;20793;-34
2022/05/26 05:14:51;;;;;;;11.85;3.95;;;17.70;99.90;;;;;;5052450;28;20228;-34
2022/05/26 05:17:20;;;;;;;14.18;4.18;;;17.70;99.90;;;;;;5027503;28;20208;-34
2022/05/26 05:19:50;;;;;;;15.38;4.28;;;17.80;99.90;;;;;;5044634;28;20200;-34
2022/05/26 05:22:30;;;;;;;14.07;4.13;;;17.80;99.90;;;;;;5047226;28;20299;-34
2022/05/26 05:25:13;;;;;;;15.82;5.07;;;17.80;99.90;;;;;;5047274;28;20231;-34
2022/05/26 05:27:45;;;;;;;12.50;4.35;;;17.90;99.90;;;;;;5047497;28;20281;-34
2022/05/26 05:30:17;;;;;;;15.05;4.47;;;17.90;99.90;;;;;;5047125;28;20694;-34
2022/05/26 05:32:53;;;;;;;11.20;4.40;;;17.90;99.90;;;;;;5045701;28;20232;-34
2022/05/26 05:35:35;;;;;;;12.52;4.45;;;18.00;99.90;;;;;;5041600;28;20258;-34
2022/05/26 05:38:05;;;;;;;13.93;4.95;;;18.00;99.90;;;;;;5040898;28;20200;-34
2022/05/26 05:40:32;;;;;;;18.17;5.35;;;18.00;99.90;;;;;;5035818;28;20741;-34
2022/05/26 05:43:00;;;;;;;11.85;4.65;;;18.00;99.90;;;;;;5030888;28;20197;-34
2022/05/26 05:45:28;;;;;;;14.52;4.75;;;18.00;99.90;;;;;;5029629;28;20573;-34
2022/05/26 05:47:55;;;;;;;14.45;4.75;;;18.00;99.90;;;;;;5030942;28;20233;-34
2022/05/26 05:50:22;;;;;;;15.35;5.20;;;18.10;99.90;;;;;;5031797;28;20292;-35
2022/05/26 05:52:50;;;;;;;13.48;5.15;;;18.10;99.90;;;;;;5040172;28;20242;-34
2022/05/26 05:55:17;;;;;;;14.93;5.60;;;18.10;99.90;;;;;;5050478;28;20625;-34
2022/05/26 05:57:44;;;;;;;14.73;5.35;;;18.20;99.90;;;;;;5050745;28;20433;-34
2022/05/26 06:00:12;;;;;;;16.80;5.60;;;18.20;99.90;;;;;;5050551;28;20232;-34
2022/05/26 06:02:39;;;;;;;21.85;6.22;;;18.20;99.90;;;;;;5050244;28;20200;-34
2022/05/26 06:05:07;;;;;;;16.92;5.35;;;18.20;99.90;;;;;;5048693;28;20556;-34
2022/05/26 06:07:34;;;;;;;14.93;5.38;;;18.20;99.90;;;;;;5029729;28;20710;-34
2022/05/26 06:10:08;;;;;;;15.90;4.55;;;18.20;99.90;;;;;;5031446;28;20219;-34
2022/05/26 06:12:36;;;;;;;15.48;5.40;;;18.20;99.90;;;;;;5030763;28;20235;-34
2022/05/26 06:15:05;;;;;;;11.82;5.22;;;18.20;99.90;;;;;;5069994;28;20199;-34
2022/05/26 06:17:32;;;;;;;15.00;5.10;;;18.30;99.90;;;;;;5068877;28;20644;-34
2022/05/26 06:20:03;;;;;;;17.55;5.18;;;18.30;99.90;;;;;;5070609;28;20628;-34
2022/05/26 06:22:30;;;;;;;12.73;5.18;;;18.40;99.90;;;;;;5063154;28;20303;-34
2022/05/26 06:24:58;;;;;;;13.13;5.55;;;18.40;99.90;;;;;;5030567;28;20715;-34
2022/05/26 06:30:18;;;;;;;15.35;5.68;;;18.50;99.90;;;;;;5038454;28;20295;-33
2022/05/26 06:38:23;;;;;;;16.10;5.78;;;18.60;99.90;;;;;;5057673;28;20199;-34
2022/05/26 06:40:50;;;;;;;12.13;5.70;;;18.60;99.90;;;;;;5030691;28;20263;-34
2022/05/26 06:43:18;;;;;;;15.43;5.25;;;18.70;99.90;;;;;;5033678;28;20246;-37
2022/05/26 06:45:48;;;;;;;15.10;5.75;;;18.70;99.90;;;;;;5049992;28;20208;-37
2022/05/26 06:48:20;;;;;;;17.50;6.22;;;18.80;99.90;;;;;;5049064;28;20207;-37
2022/05/26 06:50:47;;;;;;;11.85;5.18;;;18.80;99.90;;;;;;5049796;28;20761;-36
2022/05/26 06:53:14;;;;;;;14.27;6.13;;;18.80;99.90;;;;;;5049579;28;20710;-36
2022/05/26 06:55:42;;;;;;;10.77;5.22;;;18.80;99.90;;;;;;5049743;28;20618;-36
2022/05/26 06:58:09;;;;;;;13.23;5.20;;;18.80;99.90;;;;;;5048813;28;20262;-36
2022/05/26 07:00:36;;;;;;;16.80;5.60;;;18.80;99.90;;;;;;5041306;28;20791;-36
2022/05/26 07:03:03;;;;;;;13.40;5.65;;;18.80;99.90;;;;;;5027797;28;20213;-36
2022/05/26 07:05:35;;;;;;;15.00;5.25;;;18.90;99.90;;;;;;5029708;28;20216;-36
2022/05/26 07:08:03;;;;;;;12.40;5.32;;;18.90;99.90;;;;;;5030346;28;20223;-36
2022/05/26 07:10:34;;;;;;;14.02;6.88;;;19.00;99.90;;;;;;5045660;28;20295;-36
2022/05/26 07:13:04;;;;;;;14.93;5.95;;;19.00;99.90;;;;;;5049777;28;20247;-36
2022/05/26 07:15:33;;;;;;;12.45;5.50;;;19.00;99.90;;;;;;5049663;28;20232;-36
2022/05/26 07:18:04;;;;;;;16.25;5.50;;;19.00;99.90;;;;;;5038232;28;20460;-36
2022/05/26 07:20:36;;;;;;;10.95;5.72;;;19.00;99.90;;;;;;5029477;28;20199;-36
2022/05/26 07:23:07;;;;;;;12.82;6.43;;;19.10;99.90;;;;;;5029235;28;20205;-36
2022/05/26 07:25:42;;;;;;;14.60;5.65;;;19.10;99.90;;;;;;5029223;28;20229;-36
2022/05/26 07:28:12;;;;;;;13.80;5.25;;;19.10;99.90;;;;;;5029331;28;20654;-36
2022/05/26 07:30:40;;;;;;;13.27;5.50;;;19.20;99.90;;;;;;5029440;28;20287;-36
2022/05/26 07:33:08;;;;;;;12.23;5.75;;;19.20;99.90;;;;;;5028984;28;20220;-38
2022/05/26 07:35:36;;;;;;;12.80;5.40;;;19.20;99.90;;;;;;5044596;28;20204;-38
2022/05/26 07:43:38;;;;;;;10.52;4.25;;;19.20;99.90;;;;;;5048250;28;20303;-36
2022/05/26 07:46:06;;;;;;;11.02;4.72;;;19.20;99.90;;;;;;5049276;28;20299;-36
2022/05/26 07:48:36;;;;;;;12.35;4.60;;;19.20;99.90;;;;;;5047890;28;20224;-36
2022/05/26 07:51:03;;;;;;;10.68;4.72;;;19.30;99.90;;;;;;5045528;28;20286;-36
2022/05/26 07:53:30;;;;;;;13.35;4.57;;;19.30;99.90;;;;;;5028589;28;20220;-33
2022/05/26 07:55:57;;;;;;;13.98;4.35;;;19.40;99.90;;;;;;5043958;28;20201;-33
2022/05/26 07:58:24;;;;;;;9.60;4.18;;;19.40;99.90;;;;;;5028485;28;20193;-33
2022/05/26 08:00:54;;;;;;;9.10;4.15;;;19.40;99.90;;;;;;5027670;28;20197;-35
2022/05/26 08:03:24;;;;;;;7.47;4.22;;;19.40;99.90;;;;;;5028019;28;20208;-35
2022/05/26 08:05:54;;;;;;;9.35;4.05;;;19.50;99.90;;;;;;5029501;28;20668;-35
2022/05/26 08:08:22;;;;;;;12.35;4.05;;;19.50;99.90;;;;;;5029513;28;20854;-35
2022/05/26 08:10:49;;;;;;;11.35;3.63;;;19.50;99.90;;;;;;5028409;28;20256;-35
2022/05/26 08:13:16;;;;;;;12.30;3.60;;;19.60;99.90;;;;;;5028474;28;20247;-35
2022/05/26 08:15:44;;;;;;;11.82;3.58;;;19.60;99.90;;;;;;5028693;28;20200;-35
2022/05/26 08:18:11;;;;;;;12.32;3.28;;;19.60;99.90;;;;;;5048056;28;20203;-33
2022/05/26 08:20:42;;;;;;;11.48;3.30;;;19.70;99.90;;;;;;5048248;28;20774;-33
2022/05/26 08:23:12;;;;;;;9.07;3.38;;;19.70;99.90;;;;;;5045878;28;20239;-33
2022/05/26 08:25:39;;;;;;;10.88;3.45;;;19.70;99.90;;;;;;5038446;28;20303;-33
2022/05/26 08:28:07;;;;;;;9.93;3.00;;;19.70;99.90;;;;;;5028490;28;20642;-33
2022/05/26 08:30:46;;;;;;;8.32;2.88;;;19.70;99.90;;;;;;5027664;28;20215;-34
2022/05/26 08:33:15;;;;;;;7.00;2.80;;;19.80;99.90;;;;;;5037910;28;20230;-33
2022/05/26 08:35:42;;;;;;;8.10;3.05;;;19.80;99.90;;;;;;5047662;28;20304;-33
2022/05/26 08:38:10;;;;;;;9.93;3.53;;;19.80;99.90;;;;;;5051786;28;20294;-33
2022/05/26 08:40:43;;;;;;;9.02;3.25;;;19.80;99.90;;;;;;5030137;28;20204;-33
2022/05/26 08:43:19;;;;;;;9.05;3.15;;;19.80;99.90;;;;;;5027200;28;20546;-33
2022/05/26 08:45:52;;;;;;;6.80;2.42;;;19.90;99.90;;;;;;5027638;28;20286;-33
2022/05/26 08:48:40;;;;;;;8.45;3.00;;;19.90;99.90;;;;;;5028971;28;20692;-33
2022/05/26 08:51:12;;;;;;;7.82;2.50;;;20.00;99.90;;;;;;5047562;28;20204;-33
2022/05/26 08:53:40;;;;;;;8.95;2.45;;;20.00;99.90;;;;;;5046245;28;20303;-33
2022/05/26 08:56:25;;;;;;;4.78;2.17;;;20.00;99.90;;;;;;5039032;28;20253;-33
2022/05/26 08:59:00;;;;;;;9.13;3.00;;;20.00;99.90;;;;;;5028312;28;20617;-33
2022/05/26 09:01:31;;;;;;;11.05;2.75;;;20.10;99.90;;;;;;5046343;28;20196;-33
2022/05/26 09:04:00;;;;;;;7.80;2.97;;;20.10;99.90;;;;;;5047135;28;20242;-33
2022/05/26 09:06:30;;;;;;;8.52;3.47;;;20.20;99.90;;;;;;5047729;28;20697;-32
2022/05/26 09:14:41;;;;;;;11.88;3.70;;;20.20;99.90;;;;;;5051422;28;20235;-33
2022/05/26 09:17:11;;;;;;;9.40;3.40;;;20.20;99.90;;;;;;5052915;28;20277;-33
2022/05/26 09:19:44;;;;;;;8.25;3.65;;;20.20;99.90;;;;;;5052734;28;20241;-33
2022/05/26 09:22:39;;;;;;;10.25;3.90;;;20.30;99.90;;;;;;5054424;28;20214;-34
2022/05/26 09:25:32;;;;;;;6.32;3.65;;;20.40;99.90;;;;;;5054079;28;20600;-33
2022/05/26 09:27:59;;;;;;;6.78;3.15;;;20.30;99.90;;;;;;5053675;28;20598;-34
2022/05/26 09:30:33;;;;;;;7.03;3.55;;;20.30;99.90;;;;;;5052804;28;20306;-33
2022/05/26 09:33:00;;;;;;;7.75;4.13;;;20.40;99.90;;;;;;5052597;28;20212;-33
2022/05/26 09:35:34;;;;;;;11.95;4.70;;;20.40;99.90;;;;;;5053691;28;20217;-33
2022/05/26 09:38:05;;;;;;;8.93;4.30;;;20.40;99.90;;;;;;5059149;28;20223;-33
2022/05/26 09:40:41;;;;;;;10.52;5.03;;;20.50;99.90;;;;;;5034165;28;20199;-33
2022/05/26 09:43:24;;;;;;;8.43;4.63;;;20.50;99.90;;;;;;5032764;28;20217;-33
2022/05/26 09:45:54;;;;;;;8.13;4.65;;;20.50;99.90;;;;;;5033976;28;20192;-33
2022/05/26 09:48:36;;;;;;;9.15;4.50;;;20.50;99.90;;;;;;5034516;28;20239;-33
2022/05/26 09:51:40;;;;;;;7.97;4.93;;;20.40;99.90;;;;;;5045117;28;20216;-33
2022/05/26 09:54:33;;;;;;;10.40;4.80;;;20.40;99.90;;;;;;5053673;28;20232;-33
2022/05/26 09:57:19;;;;;;;8.32;4.63;;;20.30;99.90;;;;;;5053992;28;20212;-33
2022/05/26 09:59:47;;;;;;;9.70;5.00;;;20.30;99.90;;;;;;5052839;28;20196;-33
2022/05/26 10:02:27;;;;;;;6.97;4.47;;;20.30;99.90;;;;;;5053486;28;20200;-33
2022/05/26 10:05:03;;;;;;;10.45;5.40;;;20.30;99.90;;;;;;5038870;28;20236;-33
2022/05/26 10:07:47;;;;;;;7.57;5.05;;;20.20;99.90;;;;;;5034352;28;20200;-33
2022/05/26 10:10:29;;;;;;;8.98;4.97;;;20.20;99.90;;;;;;5034194;28;20291;-37
2022/05/26 10:13:22;;;;;;;11.38;4.15;;;20.20;99.90;;;;;;5048691;28;20266;-37
2022/05/26 10:15:52;;;;;;;6.93;4.13;;;20.30;99.90;;;;;;5052964;28;20274;-37
2022/05/26 10:18:19;;;;;;;6.55;4.28;;;20.30;99.90;;;;;;5053029;28;20314;-37
2022/05/26 10:21:08;;;;;;;8.23;4.10;;;20.30;99.90;;;;;;5052735;28;20203;-37
2022/05/26 10:24:13;;;;;;;8.13;4.15;;;20.30;99.90;;;;;;5049915;28;20220;-37
2022/05/26 10:27:17;;;;;;;5.63;3.65;;;20.30;99.90;;;;;;5030501;28;20237;-37
2022/05/26 10:30:09;;;;;;;8.55;3.55;;;20.40;99.90;;;;;;5030398;28;20204;-37
2022/05/26 10:32:55;;;;;;;6.53;3.20;;;20.40;99.90;;;;;;5027963;28;20205;-37
2022/05/26 10:35:35;;;;;;;6.18;2.35;;;20.50;99.90;;;;;;5037386;28;20724;-37
2022/05/26 10:38:10;;;;;;;6.25;2.85;;;20.60;99.90;;;;;;5051905;28;20303;-37
2022/05/26 10:41:02;;;;;;;4.70;2.30;;;20.70;99.90;;;;;;5030094;28;20287;-36
2022/05/26 10:43:49;;;;;;;5.32;2.53;;;20.80;99.90;;;;;;5029537;28;20621;-37
2022/05/26 10:46:19;;;;;;;5.15;2.58;;;20.80;99.90;;;;;;5030367;28;20223;-37
2022/05/26 10:49:04;;;;;;;6.75;2.40;;;20.90;99.90;;;;;;5029550;28;20270;-37
2022/05/26 10:52:00;;;;;;;5.78;2.47;;;20.90;99.90;;;;;;5030182;28;20691;-37
2022/05/26 10:54:42;;;;;;;5.35;2.28;;;21.00;99.90;;;;;;5030439;28;20234;-37
2022/05/26 10:57:25;;;;;;;5.90;1.88;;;21.00;99.90;;;;;;5029945;28;20262;-37
2022/05/26 11:00:09;;;;;;;6.47;2.15;;;21.10;99.90;;;;;;5047571;28;20204;-37
2022/05/26 11:03:06;;;;;;;3.90;2.00;;;21.10;99.90;;;;;;5049130;28;20237;-37
2022/05/26 11:05:41;;;;;;;5.10;1.80;;;21.20;99.90;;;;;;5046362;28;20192;-37
2022/05/26 11:08:44;;;;;;;7.95;2.20;;;21.30;99.90;;;;;;5060636;28;20231;-37
2022/05/26 11:11:23;;;;;;;5.13;2.05;;;21.40;99.90;;;;;;5029107;28;20219;-37
2022/05/26 11:14:09;;;;;;;8.63;1.98;;;21.40;99.90;;;;;;5027722;28;20252;-37
2022/05/26 11:20:14;;;;;;;4.78;1.92;;;21.60;99.90;;;;;;5049303;28;20207;-37
2022/05/26 11:22:45;;;;;;;5.25;1.77;;;21.60;99.90;;;;;;5047406;28;20346;-37
2022/05/26 11:25:23;;;;;;;6.40;2.20;;;21.60;99.90;;;;;;5028811;28;20209;-37
2022/05/26 11:27:56;;;;;;;6.10;1.75;;;21.70;99.90;;;;;;5029449;28;20200;-37
2022/05/26 11:36:52;;;;;;;5.32;1.88;;;21.70;99.90;;;;;;5049044;28;20289;-37
2022/05/26 11:39:43;;;;;;;7.25;1.75;;;21.70;99.90;;;;;;5061097;28;20227;-37
2022/05/26 11:42:33;;;;;;;5.40;1.80;;;21.80;99.90;;;;;;5067154;28;20405;-37
2022/05/26 11:45:15;;;;;;;4.45;1.70;;;21.80;99.90;;;;;;5068135;28;20222;-37
2022/05/26 11:47:48;;;;;;;4.95;2.00;;;21.80;99.90;;;;;;5028336;28;20323;-37
2022/05/26 11:50:55;;;;;;;6.63;2.13;;;21.90;99.90;;;;;;5029417;28;20201;-37
2022/05/26 11:53:28;;;;;;;4.97;1.63;;;21.90;99.90;;;;;;5028392;28;20224;-37
2022/05/26 11:56:06;;;;;;;5.20;1.38;;;21.90;99.90;;;;;;5028314;28;20251;-37
2022/05/26 11:58:44;;;;;;;5.03;1.58;;;22.00;99.90;;;;;;5027945;28;20197;-37
2022/05/26 12:01:21;;;;;;;13.07;1.80;;;22.00;99.90;;;;;;5029182;28;20557;-37
2022/05/26 12:03:50;;;;;;;7.63;1.63;;;22.00;99.70;;;;;;5028617;28;20620;-37
2022/05/26 12:06:37;;;;;;;5.80;1.73;;;22.10;99.60;;;;;;5033247;28;20712;-37
2022/05/26 12:09:35;;;;;;;4.60;1.70;;;22.10;99.80;;;;;;5031458;28;20298;-37
2022/05/26 12:12:08;;;;;;;7.75;1.50;;;22.20;99.60;;;;;;5030850;28;20272;-37
2022/05/26 12:15:02;;;;;;;5.78;1.70;;;22.10;99.30;;;;;;5026079;28;20563;-37
2022/05/26 12:17:49;;;;;;;4.50;1.40;;;22.10;99.00;;;;;;5028088;28;20284;-37
2022/05/26 12:20:16;;;;;;;5.93;1.67;;;22.20;99.30;;;;;;5028665;28;20217;-37
2022/05/26 12:22:49;;;;;;;4.45;1.27;;;22.20;98.90;;;;;;5028037;28;20283;-37
2022/05/26 12:25:31;;;;;;;6.13;1.40;;;22.20;99.10;;;;;;5027983;28;20529;-37
2022/05/26 12:28:31;;;;;;;4.88;1.33;;;22.30;98.90;;;;;;5027831;28;20319;-37
2022/05/26 12:30:58;;;;;;;5.28;1.73;;;22.30;99.20;;;;;;5028597;28;20212;-37
2022/05/26 12:33:56;;;;;;;3.75;1.40;;;22.30;99.10;;;;;;5027169;28;20703;-37
2022/05/26 12:36:54;;;;;;;4.28;1.52;;;22.30;99.30;;;;;;5026804;28;20301;-37
2022/05/26 12:39:43;;;;;;;3.60;1.30;;;22.40;97.90;;;;;;5059822;28;20200;-37
2022/05/26 12:42:39;;;;;;;6.13;1.55;;;22.50;98.90;;;;;;5027884;28;20325;-37
2022/05/26 12:46:04;;;;;;;4.47;1.70;;;22.50;98.80;;;;;;5027237;28;20283;-37
2022/05/26 12:48:54;;;;;;;3.45;1.30;;;22.60;99.20;;;;;;5024431;28;20216;-37
2022/05/26 12:51:24;;;;;;;4.13;1.27;;;22.70;99.50;;;;;;5025185;28;20255;-37
2022/05/26 12:53:57;;;;;;;3.83;1.50;;;22.70;99.50;;;;;;5027016;28;20268;-37
2022/05/26 12:56:46;;;;;;;6.35;1.58;;;22.80;99.30;;;;;;5027846;28;20205;-37
2022/05/26 12:59:20;;;;;;;4.53;1.70;;;22.80;99.00;;;;;;5027425;28;20197;-37
2022/05/26 13:01:50;;;;;;;3.05;1.30;;;22.80;99.30;;;;;;5027635;28;20303;-37
2022/05/26 13:04:24;;;;;;;5.07;1.25;;;22.90;99.30;;;;;;5027266;28;20236;-37
2022/05/26 13:06:54;;;;;;;4.85;1.88;;;23.00;98.70;;;;;;5026101;28;20567;-37
2022/05/26 13:09:30;;;;;;;4.72;1.55;;;23.00;99.10;;;;;;5055689;28;20249;-37
2022/05/26 13:12:01;;;;;;;7.75;1.75;;;23.00;99.00;;;;;;5034669;28;20211;-37
2022/05/26 13:14:35;;;;;;;3.58;1.27;;;23.10;99.30;;;;;;5027333;28;20244;-37
2022/05/26 13:17:12;;;;;;;5.15;1.35;;;23.10;98.80;;;;;;5045785;28;20207;-37
2022/05/26 13:19:43;;;;;;;7.68;1.40;;;23.10;98.60;;;;;;5042113;28;20228;-37
2022/05/26 13:22:15;;;;;;;5.63;1.27;;;23.20;98.40;;;;;;5027316;28;20262;-37
2022/05/26 13:24:58;;;;;;;6.95;1.40;;;23.20;98.90;;;;;;5026072;28;20582;-37
2022/05/26 13:27:39;;;;;;;4.70;1.58;;;23.30;98.70;;;;;;5027843;28;20223;-37
2022/05/26 13:33:11;;;;;;;6.00;1.20;;;23.30;98.50;;;;;;5045906;28;20738;-37
2022/05/26 13:35:49;;;;;;;6.13;1.73;;;23.30;97.80;;;;;;5046802;28;20223;-37
2022/05/26 13:38:37;;;;;;;5.00;1.48;;;23.30;98.30;;;;;;5053764;28;20192;-37
2022/05/26 13:41:10;;;;;;;4.20;1.30;;;23.30;98.40;;;;;;5052027;28;20595;-37
2022/05/26 13:43:41;;;;;;;3.63;1.25;;;23.30;98.40;;;;;;5046359;28;20208;-37
2022/05/26 13:46:09;;;;;;;3.13;1.08;;;23.30;98.60;;;;;;5030165;28;20212;-37
2022/05/26 13:48:47;;;;;;;3.40;1.20;;;23.30;98.80;;;;;;5034344;28;20208;-37
2022/05/26 13:51:40;;;;;;;3.53;1.40;;;23.40;98.50;;;;;;5047252;28;20194;-38
2022/05/26 13:54:38;;;;;;;4.78;1.10;;;23.40;97.80;;;;;;5048284;28;20229;-37
2022/05/26 13:57:21;;;;;;;3.50;1.17;;;23.40;98.70;;;;;;5047383;28;20319;-37
2022/05/26 14:00:17;;;;;;;4.70;1.33;;;23.40;98.80;;;;;;5050155;28;20531;-38
2022/05/26 14:02:57;;;;;;;4.35;1.30;;;23.40;98.80;;;;;;5049360;28;20299;-37
2022/05/26 14:05:28;;;;;;;2.85;1.30;;;23.40;98.70;;;;;;5044020;28;20247;-37